createdAt,value
2022-11-04T00:00:40.966Z,20.8
2022-11-04T00:02:58.035Z,20.4
2022-11-04T00:05:15.576Z,20.3
2022-11-04T00:07:33.395Z,20.4
2022-11-04T00:09:51.073Z,20.9
2022-11-04T00:12:08.784Z,20.8
2022-11-04T00:14:26.556Z,20.6
2022-11-04T00:16:44.211Z,20.6
2022-11-04T00:19:01.916Z,20.2
2022-11-04T00:21:19.435Z,20.8
2022-11-04T00:23:37.045Z,20.3
2022-11-04T00:25:54.929Z,21.1
2022-11-04T00:28:12.574Z,20.5
2022-11-04T00:30:31.209Z,20.7
2022-11-04T00:32:47.963Z,21.3
2022-11-04T00:35:05.589Z,20.4
2022-11-04T00:37:23.405Z,20.7
2022-11-04T00:39:41.114Z,20.8
2022-11-04T00:41:58.832Z,21
2022-11-04T00:44:16.597Z,20.4
2022-11-04T00:46:34.326Z,20.5
2022-11-04T00:48:52.069Z,20.3
2022-11-04T00:51:09.825Z,20.4
2022-11-04T00:53:27.327Z,20.3
2022-11-04T00:55:44.922Z,20.4
2022-11-04T00:58:03.222Z,20.6
2022-11-04T01:00:20.498Z,20.4
2022-11-04T01:02:38.232Z,20.6
2022-11-04T01:04:55.884Z,20.4
2022-11-04T01:07:13.616Z,20.4
2022-11-04T01:09:31.387Z,20.4
2022-11-04T01:11:49.055Z,20.5
2022-11-04T01:14:06.756Z,20.6
2022-11-04T01:16:25.230Z,20.2
2022-11-04T01:18:42.247Z,20.9
2022-11-04T01:20:59.809Z,20.8
2022-11-04T01:23:17.423Z,20.1
2022-11-04T01:25:35.172Z,20.6
2022-11-04T01:27:52.983Z,20.7
2022-11-04T01:30:10.859Z,20.6
2022-11-04T01:32:28.422Z,20.4
2022-11-04T01:34:46.059Z,20.1
2022-11-04T01:37:03.858Z,20.8
2022-11-04T01:39:21.504Z,20.9
2022-11-04T01:41:39.056Z,20.4
2022-11-04T01:43:56.623Z,20.1
2022-11-04T01:46:14.242Z,20.2
2022-11-04T01:48:31.861Z,20.2
2022-11-04T01:50:49.466Z,20.3
2022-11-04T01:53:07.506Z,20.7
2022-11-04T01:55:24.636Z,20.1
2022-11-04T01:57:42.227Z,20.1
2022-11-04T01:59:59.793Z,19.9
2022-11-04T02:02:17.964Z,20.8
2022-11-04T02:04:35.313Z,20
2022-11-04T02:06:53.052Z,20.5
2022-11-04T02:09:10.631Z,20.4
2022-11-04T02:11:28.108Z,19.9
2022-11-04T02:13:45.848Z,20
2022-11-04T02:16:03.663Z,20.5
2022-11-04T02:18:21.156Z,20.6
2022-11-04T02:20:38.701Z,19.8
2022-11-04T02:22:56.289Z,19.9
2022-11-04T02:25:13.945Z,20
2022-11-04T02:27:31.381Z,20.1
2022-11-04T02:29:49.008Z,19.8
2022-11-04T02:32:06.480Z,20.2
2022-11-04T02:34:24.806Z,20.8
2022-11-04T02:36:42.022Z,20.9
2022-11-04T02:38:59.540Z,20.1
2022-11-04T02:41:17.030Z,19.9
2022-11-04T02:43:34.609Z,20.1
2022-11-04T02:45:52.257Z,19.9
2022-11-04T02:48:10.985Z,20.1
2022-11-04T02:50:27.703Z,20.4
2022-11-04T02:52:48.610Z,20.6
2022-11-04T02:55:02.965Z,20.4
2022-11-04T02:57:20.624Z,20.5
2022-11-04T02:59:38.246Z,20.4
2022-11-04T03:01:55.897Z,19.8
2022-11-04T03:04:13.347Z,19.8
2022-11-04T03:06:30.896Z,19.8
2022-11-04T03:08:48.467Z,19.8
2022-11-04T03:11:05.948Z,20.1
2022-11-04T03:13:23.526Z,20.1
2022-11-04T03:15:41.100Z,20.3
2022-11-04T03:17:58.685Z,20
2022-11-04T03:20:16.163Z,19.9
2022-11-04T03:22:33.702Z,19.7
2022-11-04T03:24:51.286Z,19.8
2022-11-04T03:27:08.863Z,20.2
2022-11-04T03:29:26.407Z,20.4
2022-11-04T03:31:43.998Z,20.2
2022-11-04T03:34:01.713Z,20.3
2022-11-04T03:36:18.970Z,19.8
2022-11-04T03:38:36.493Z,20.3
2022-11-04T03:40:54.093Z,20.4
2022-11-04T03:43:11.867Z,20.1
2022-11-04T03:45:29.049Z,20.3
2022-11-04T03:47:46.713Z,19.8
2022-11-04T03:50:04.538Z,19.7
2022-11-04T03:52:22.073Z,19.6
2022-11-04T03:54:39.734Z,20
2022-11-04T03:56:57.394Z,19.7
2022-11-04T03:59:14.871Z,19.6
2022-11-04T04:01:32.511Z,19.6
2022-11-04T04:03:49.928Z,19.7
2022-11-04T04:06:07.573Z,19.8
2022-11-04T04:08:25.117Z,19.8
2022-11-04T04:10:42.676Z,19.7
2022-11-04T04:13:00.183Z,19.9
2022-11-04T04:15:17.681Z,19.9
2022-11-04T04:17:35.184Z,20.1
2022-11-04T04:19:53.084Z,19.9
2022-11-04T04:22:10.288Z,19.8
2022-11-04T04:24:27.812Z,19.6
2022-11-04T04:26:45.358Z,19.6
2022-11-04T04:29:03.017Z,19.7
2022-11-04T04:31:20.609Z,19.7
2022-11-04T04:33:38.367Z,19.5
2022-11-04T04:35:56.003Z,19.7
2022-11-04T04:38:13.762Z,19.6
2022-11-04T04:40:31.268Z,19.6
2022-11-04T04:42:49.451Z,20
2022-11-04T04:45:06.653Z,19.6
2022-11-04T04:47:24.364Z,19.9
2022-11-04T04:49:41.860Z,19.9
2022-11-04T04:51:59.362Z,19.6
2022-11-04T04:54:17.042Z,20
2022-11-04T04:56:34.628Z,20.2
2022-11-04T04:58:52.595Z,20.3
2022-11-04T05:01:10.238Z,19.8
2022-11-04T05:03:28.008Z,19.6
2022-11-04T05:05:45.931Z,19.4
2022-11-04T05:08:03.571Z,19.4
2022-11-04T05:10:21.087Z,19.8
2022-11-04T05:12:38.696Z,19.8
2022-11-04T05:14:56.502Z,19.6
2022-11-04T05:17:14.196Z,19.5
2022-11-04T05:19:31.973Z,19.6
2022-11-04T05:21:49.459Z,19.7
2022-11-04T05:24:07.227Z,19.6
2022-11-04T05:26:24.889Z,19.4
2022-11-04T05:28:42.617Z,19.6
2022-11-04T05:31:00.312Z,19.6
2022-11-04T05:33:18.158Z,19.5
2022-11-04T05:35:35.743Z,19.4
2022-11-04T05:37:53.404Z,19.7
2022-11-04T05:40:11.088Z,19.4
2022-11-04T05:42:28.662Z,19.5
2022-11-04T05:44:46.621Z,19.6
2022-11-04T05:47:04.139Z,19.6
2022-11-04T05:49:22.105Z,19.5
2022-11-04T05:51:39.833Z,19.7
2022-11-04T05:53:57.468Z,19.5
2022-11-04T05:56:15.052Z,19.3
2022-11-04T05:58:32.792Z,19.8
2022-11-04T06:00:50.591Z,20.2
2022-11-04T06:03:09.491Z,19.7
2022-11-04T06:05:26.047Z,19.4
2022-11-04T06:07:43.754Z,19.7
2022-11-04T06:10:01.669Z,20.1
2022-11-04T06:12:19.177Z,19.8
2022-11-04T06:14:37.092Z,19.8
2022-11-04T06:16:54.815Z,20.3
2022-11-04T06:19:15.074Z,20.8
2022-11-04T06:21:30.357Z,20.4
2022-11-04T06:23:47.839Z,20.2
2022-11-04T06:26:05.777Z,20.3
2022-11-04T06:28:23.466Z,20.5
2022-11-04T06:30:41.987Z,20.4
2022-11-04T06:32:59.709Z,20.7
2022-11-04T06:35:17.684Z,20.6
2022-11-04T06:37:35.505Z,20.6
2022-11-04T06:39:53.154Z,20.5
2022-11-04T06:42:10.771Z,20.4
2022-11-04T06:44:28.548Z,20.3
2022-11-04T06:46:46.452Z,21.3
2022-11-04T06:49:04.107Z,21.1
2022-11-04T06:51:22.115Z,21.3
2022-11-04T06:55:57.620Z,20.7
2022-11-04T06:58:15.327Z,21
2022-11-04T07:00:33.128Z,21.3
2022-11-04T07:02:50.869Z,20.8
2022-11-04T07:05:08.740Z,20.6
2022-11-04T07:07:26.293Z,20.9
2022-11-04T07:09:43.962Z,21.1
2022-11-04T07:12:01.871Z,20.9
2022-11-04T07:14:19.357Z,21.2
2022-11-04T07:16:37.337Z,21.3
2022-11-04T07:18:55.042Z,21
2022-11-04T07:21:12.945Z,21.6
2022-11-04T07:23:30.735Z,21.8
2022-11-04T07:25:48.890Z,21.6
2022-11-04T07:28:06.157Z,21.8
2022-11-04T07:30:23.621Z,21.6
2022-11-04T07:32:41.429Z,21.6
2022-11-04T07:34:58.834Z,21.5
2022-11-04T07:37:16.719Z,21.6
2022-11-04T07:39:34.255Z,21.8
2022-11-04T07:41:55.534Z,22.2
2022-11-04T07:44:09.532Z,22.7
2022-11-04T07:46:27.440Z,22.1
2022-11-04T07:48:44.939Z,22.1
2022-11-04T07:51:02.766Z,21.8
2022-11-04T07:53:20.260Z,22.1
2022-11-04T07:55:42.043Z,21.7
2022-11-04T07:57:55.656Z,21.9
2022-11-04T08:00:13.260Z,22.4
2022-11-04T08:02:34.951Z,22.2
2022-11-04T08:04:48.275Z,22.8
2022-11-04T08:07:05.883Z,22.4
2022-11-04T08:09:23.716Z,22.5
2022-11-04T08:11:41.214Z,22.6
2022-11-04T08:13:58.529Z,22.4
2022-11-04T08:16:15.899Z,22.6
2022-11-04T08:18:33.473Z,22.3
2022-11-04T08:20:50.738Z,22.5
2022-11-04T08:23:08.487Z,22.1
2022-11-04T08:25:25.341Z,22.2
2022-11-04T08:27:42.849Z,22.2
2022-11-04T08:30:00.031Z,22.1
2022-11-04T08:32:17.551Z,22.2
2022-11-04T08:34:34.783Z,22.5
2022-11-04T08:36:52.312Z,22.4
2022-11-04T08:39:11.101Z,22.4
2022-11-04T08:41:26.703Z,22.5
2022-11-04T08:43:44.680Z,22.6
2022-11-04T08:46:01.959Z,22.4
2022-11-04T08:48:19.456Z,22.6
2022-11-04T08:50:36.784Z,23.8
2022-11-04T08:52:54.205Z,23.1
2022-11-04T08:55:11.803Z,23.3
2022-11-04T08:57:29.226Z,23.9
2022-11-04T08:59:46.668Z,23.5
2022-11-04T09:02:04.319Z,23.3
2022-11-04T09:04:21.911Z,23.3
2022-11-04T09:06:39.361Z,23.2
2022-11-04T09:08:57.071Z,23.4
2022-11-04T09:11:14.650Z,23.3
2022-11-04T09:13:35.507Z,23.4
2022-11-04T09:15:49.958Z,23.2
2022-11-04T09:18:08.340Z,23.3
2022-11-04T09:20:25.326Z,23.3
2022-11-04T09:22:45.870Z,23.3
2022-11-04T09:25:00.594Z,23.3
2022-11-04T09:27:18.077Z,23.3
2022-11-04T09:29:35.851Z,23.4
2022-11-04T09:31:53.501Z,23.4
2022-11-04T09:34:11.308Z,23.4
2022-11-04T09:36:29.097Z,23.5
2022-11-04T09:38:46.752Z,23.5
2022-11-04T09:41:04.725Z,23.3
2022-11-04T09:43:22.044Z,23.5
2022-11-04T09:45:56.419Z,23.4
2022-11-04T09:48:13.842Z,23.5
2022-11-04T09:50:31.448Z,23.4
2022-11-04T09:53:00.196Z,23.6
2022-11-04T09:55:17.748Z,23.6
2022-11-04T09:57:35.442Z,23.6
2022-11-04T09:59:52.962Z,23.4
2022-11-04T10:02:10.777Z,23.5
2022-11-04T10:04:28.239Z,23.6
2022-11-04T10:06:45.825Z,23.6
2022-11-04T10:09:03.607Z,23.4
2022-11-04T10:11:20.996Z,23.5
2022-11-04T10:13:38.680Z,23.5
2022-11-04T10:15:56.190Z,23.5
2022-11-04T10:18:13.837Z,23.3
2022-11-04T10:20:31.452Z,23.5
2022-11-04T10:22:49.048Z,23.4
2022-11-04T10:25:06.766Z,23.5
2022-11-04T10:27:24.302Z,23.6
2022-11-04T10:29:42.050Z,23.4
2022-11-04T10:31:59.869Z,23.4
2022-11-04T10:34:17.196Z,23.3
2022-11-04T10:36:35.017Z,23.4
2022-11-04T10:38:52.474Z,23.4
2022-11-04T10:41:10.230Z,23.3
2022-11-04T10:43:27.761Z,23.3
2022-11-04T10:45:45.496Z,23.6
2022-11-04T10:48:02.990Z,23.3
2022-11-04T10:50:31.981Z,23.2
2022-11-04T10:52:49.411Z,23.3
2022-11-04T10:55:06.988Z,23.1
2022-11-04T10:57:24.956Z,23.4
2022-11-04T10:59:42.306Z,23.3
2022-11-04T11:02:00.016Z,23.3
2022-11-04T11:04:17.509Z,23.4
2022-11-04T11:06:35.170Z,23.3
2022-11-04T11:08:52.766Z,23.2
2022-11-04T11:11:10.393Z,23.2
2022-11-04T11:13:47.951Z,23.1
2022-11-04T11:16:05.621Z,23.1
2022-11-04T11:18:23.248Z,23.1
2022-11-04T11:20:40.854Z,23.2
2022-11-04T11:23:03.602Z,23.1
2022-11-04T11:25:16.170Z,23.1
2022-11-04T11:27:33.802Z,23.2
2022-11-04T11:29:51.436Z,23.2
2022-11-04T11:32:09.006Z,23
2022-11-04T11:34:26.623Z,23.2
2022-11-04T11:36:44.308Z,23.1
2022-11-04T11:39:02.007Z,23
2022-11-04T11:41:39.645Z,22.8
2022-11-04T11:43:53.626Z,23.1
2022-11-04T11:46:11.268Z,23
2022-11-04T11:48:29.658Z,23.1
2022-11-04T11:50:46.550Z,23
2022-11-04T11:53:04.381Z,22.9
2022-11-04T11:55:21.801Z,23.1
2022-11-04T12:01:38.082Z,22.8
2022-11-04T12:10:23.915Z,22.4
2022-11-04T12:12:52.223Z,22.8
2022-11-04T12:15:12.025Z,22.8
2022-11-04T12:17:29.729Z,22.6
2022-11-04T12:19:47.507Z,22.8
2022-11-04T12:22:05.018Z,22.8
2022-11-04T12:24:22.769Z,22.5
2022-11-04T12:26:40.223Z,22.5
2022-11-04T12:28:57.815Z,22.5
2022-11-04T12:31:15.514Z,22.6
2022-11-04T12:33:33.271Z,22.6
2022-11-04T12:35:51.004Z,22.6
2022-11-04T12:38:08.500Z,22.8
2022-11-04T12:40:26.119Z,22.6
2022-11-04T12:43:28.599Z,22.4
2022-11-04T12:45:46.304Z,22.5
2022-11-04T12:48:04.143Z,22.6
2022-11-04T12:50:21.904Z,22.4
2022-11-04T12:52:40.012Z,22.5
2022-11-04T12:54:57.517Z,22.4
2022-11-04T12:57:15.099Z,22.4
2022-11-04T12:59:33.078Z,22.4
2022-11-04T13:01:50.733Z,22.5
2022-11-04T13:04:08.430Z,22.4
2022-11-04T13:06:25.972Z,22.4
2022-11-04T13:08:43.902Z,22.3
2022-11-04T13:11:01.729Z,22.4
2022-11-04T13:13:19.097Z,22.4
2022-11-04T13:15:37.317Z,22.9
2022-11-04T13:17:54.088Z,22.7
2022-11-04T13:20:12.023Z,22.4
2022-11-04T13:22:29.692Z,22.4
2022-11-04T13:24:47.529Z,22.3
2022-11-04T13:27:04.929Z,22.3
2022-11-04T13:29:22.792Z,22.8
2022-11-04T13:31:40.040Z,22.9
2022-11-04T13:33:57.739Z,22.1
2022-11-04T13:36:15.112Z,22.7
2022-11-04T13:38:32.764Z,22.4
2022-11-04T13:40:50.152Z,22.3
2022-11-04T13:43:07.754Z,22.1
2022-11-04T13:45:25.072Z,22.1
2022-11-04T13:47:42.551Z,22.1
2022-11-04T13:50:00.218Z,22.1
2022-11-04T13:52:17.391Z,22
2022-11-04T13:54:35.139Z,22
2022-11-04T13:57:05.900Z,22.1
2022-11-04T13:59:22.661Z,21.9
2022-11-04T14:01:40.222Z,21.8
2022-11-04T14:03:57.377Z,22
2022-11-04T14:06:14.648Z,22.1
2022-11-04T14:08:32.089Z,22.1
2022-11-04T14:10:49.686Z,22.2
2022-11-04T14:13:07.391Z,21.8
2022-11-04T14:15:24.313Z,21.7
2022-11-04T14:17:41.639Z,21.8
2022-11-04T14:19:59.033Z,22
2022-11-04T14:22:16.489Z,21.8
2022-11-04T14:24:34.113Z,21.8
2022-11-04T14:26:51.965Z,22.1
2022-11-04T14:29:09.483Z,21.9
2022-11-04T14:31:27.136Z,22
2022-11-04T14:33:44.728Z,22.3
2022-11-04T14:36:02.518Z,22.1
2022-11-04T14:38:19.917Z,22.2
2022-11-04T14:40:37.471Z,22
2022-11-04T14:42:55.232Z,22.1
2022-11-04T14:45:12.994Z,22.2
2022-11-04T14:47:30.808Z,22.6
2022-11-04T14:49:48.484Z,22
2022-11-04T14:52:06.030Z,22.1
2022-11-04T14:54:23.873Z,22.6
2022-11-04T14:56:41.133Z,22.4
2022-11-04T14:58:58.807Z,22.6
2022-11-04T15:01:16.783Z,22.3
2022-11-04T15:04:12.984Z,22.3
2022-11-04T15:06:40.533Z,22.2
2022-11-04T15:08:46.959Z,22.2
2022-11-04T15:11:04.438Z,22.6
2022-11-04T15:13:22.136Z,22.1
2022-11-04T15:15:39.910Z,22.2
2022-11-04T15:17:57.580Z,22.3
2022-11-04T15:20:15.086Z,22.4
2022-11-04T15:22:32.675Z,21.9
2022-11-04T15:24:50.489Z,21.9
2022-11-04T15:27:07.929Z,22.3
2022-11-04T15:29:25.586Z,22.3
2022-11-04T15:31:43.258Z,22.3
2022-11-04T15:34:00.896Z,22.3
2022-11-04T15:36:18.311Z,22.1
2022-11-04T15:38:36.102Z,21.9
2022-11-04T15:40:53.552Z,21.4
2022-11-04T15:43:11.656Z,22.2
2022-11-04T15:45:28.897Z,22.4
2022-11-04T15:47:46.404Z,22.4
2022-11-04T15:50:04.040Z,21.8
2022-11-04T15:52:21.610Z,21.9
2022-11-04T15:54:39.237Z,22.3
2022-11-04T15:56:56.792Z,22
2022-11-04T15:59:14.432Z,21.9
2022-11-04T16:01:32.219Z,21.8
2022-11-04T16:03:49.751Z,22.2
2022-11-04T16:06:07.494Z,22
2022-11-04T16:08:25.210Z,21.8
2022-11-04T16:10:42.894Z,21.8
2022-11-04T16:13:00.691Z,21.8
2022-11-04T16:15:18.271Z,21.6
2022-11-04T16:17:36.096Z,22
2022-11-04T16:19:53.688Z,21.8
2022-11-04T16:22:11.713Z,21.7
2022-11-04T16:24:29.679Z,22.1
2022-11-04T16:26:47.197Z,21.6
2022-11-04T16:29:04.739Z,22.2
2022-11-04T16:31:22.428Z,21.6
2022-11-04T16:33:40.328Z,22.1
2022-11-04T16:35:57.970Z,21.6
2022-11-04T16:38:15.890Z,21.7
2022-11-04T16:40:33.538Z,21.8
2022-11-04T16:42:51.428Z,21.8
2022-11-04T16:45:08.894Z,21.8
2022-11-04T16:47:26.868Z,21.5
2022-11-04T16:49:44.541Z,21.7
2022-11-04T16:52:02.178Z,22
2022-11-04T16:54:20.178Z,21.7
2022-11-04T16:56:37.808Z,21.6
2022-11-04T16:58:55.804Z,21.4
2022-11-04T17:01:13.533Z,21.7
2022-11-04T17:03:31.159Z,21.6
2022-11-04T17:05:48.862Z,21.3
2022-11-04T17:08:10.057Z,21.8
2022-11-04T17:10:27.945Z,21.8
2022-11-04T17:12:45.448Z,21.1
2022-11-04T17:15:03.110Z,21.9
2022-11-04T17:17:20.778Z,21.6
2022-11-04T17:19:38.279Z,21.8
2022-11-04T17:21:55.955Z,21.4
2022-11-04T17:24:13.654Z,21.8
2022-11-04T17:26:31.443Z,21.4
2022-11-04T17:28:48.993Z,21.3
2022-11-04T17:31:06.520Z,21.4
2022-11-04T17:37:59.921Z,21.1
2022-11-04T17:40:17.173Z,21.6
2022-11-04T17:42:34.866Z,21.2
2022-11-04T17:47:10.361Z,21
2022-11-04T17:49:27.839Z,21.6
2022-11-04T17:51:45.516Z,21.4
2022-11-04T17:54:03.220Z,21.6
2022-11-04T17:56:21.285Z,21.7
2022-11-04T17:58:38.640Z,21.2
2022-11-04T18:00:56.326Z,21.4
2022-11-04T18:03:14.098Z,21.4
2022-11-04T18:05:31.709Z,21.5
2022-11-04T18:12:24.631Z,20.8
2022-11-04T18:14:42.370Z,21.6
2022-11-04T18:17:00.032Z,21.6
2022-11-04T18:19:17.937Z,21.3
2022-11-04T18:21:35.535Z,21.1
2022-11-04T18:23:53.193Z,21.8
2022-11-04T18:26:11.080Z,21.5
2022-11-04T18:28:28.607Z,21.4
2022-11-04T18:30:46.508Z,20.7
2022-11-04T18:33:04.160Z,21.6
2022-11-04T18:35:22.006Z,21.6
2022-11-04T18:37:43.034Z,20.7
2022-11-04T18:39:57.495Z,20.8
2022-11-04T18:42:15.452Z,20.8
2022-11-04T18:44:33.152Z,21.2
2022-11-04T18:49:08.443Z,21
2022-11-04T18:51:26.311Z,20.7
2022-11-04T18:53:44.090Z,21.2
2022-11-04T18:56:02.069Z,21.6
2022-11-04T18:58:19.589Z,21.4
2022-11-04T19:00:37.597Z,20.8
2022-11-04T19:02:55.251Z,21.3
2022-11-04T19:05:13.370Z,22.5
2022-11-04T19:07:30.969Z,21.5
2022-11-04T19:12:34.400Z,21.2
2022-11-04T19:14:51.894Z,21.3
2022-11-04T19:17:09.600Z,20.8
2022-11-04T19:19:27.339Z,21.5
2022-11-04T19:21:45.051Z,21.3
2022-11-04T19:26:20.328Z,21.2
2022-11-04T19:28:54.181Z,20.9
2022-11-04T19:31:12.325Z,21.7
2022-11-04T19:33:29.980Z,21.1
2022-11-04T19:35:47.506Z,21.3
2022-11-04T19:38:05.240Z,21.3
2022-11-04T19:40:22.716Z,21.2
2022-11-04T19:42:40.615Z,20.6
2022-11-04T19:47:15.998Z,20.8
2022-11-04T19:49:33.609Z,21.5
2022-11-04T19:51:51.366Z,21.2
2022-11-04T19:54:09.081Z,21.3
2022-11-04T19:56:26.841Z,21.4
2022-11-04T19:58:44.498Z,21.6
2022-11-04T20:01:02.147Z,20.6
2022-11-04T20:03:19.813Z,20.9
2022-11-04T20:05:37.600Z,20.9
2022-11-04T20:07:55.331Z,21.2
2022-11-04T20:10:13.001Z,20.9
2022-11-04T20:12:30.672Z,21.4
2022-11-04T20:14:48.437Z,20.4
2022-11-04T20:17:06.076Z,21.2
2022-11-04T20:19:23.824Z,20.9
2022-11-04T20:21:42.001Z,20.7
2022-11-04T20:23:59.060Z,21.3
2022-11-04T20:26:20.370Z,20.6
2022-11-04T20:28:34.400Z,21.3
2022-11-04T20:30:52.121Z,21.4
2022-11-04T20:33:09.900Z,21.8
2022-11-04T20:35:27.519Z,20.9
2022-11-04T20:37:45.247Z,21.2
2022-11-04T20:40:03.002Z,20.9
2022-11-04T20:42:20.725Z,21.2
2022-11-04T20:44:38.423Z,21.3
2022-11-04T20:46:56.084Z,21.2
2022-11-04T20:49:13.822Z,20.8
2022-11-04T20:51:31.530Z,20.8
2022-11-04T20:53:49.152Z,20.8
2022-11-04T20:56:06.967Z,20.5
2022-11-04T20:58:24.569Z,20.8
2022-11-04T21:00:42.182Z,20.4
2022-11-04T21:02:59.942Z,20.4
2022-11-04T21:05:17.712Z,20.7
2022-11-04T21:07:35.226Z,20.4
2022-11-04T21:09:52.922Z,20.6
2022-11-04T21:12:10.680Z,20.8
2022-11-04T21:14:29.508Z,20.7
2022-11-04T21:16:45.876Z,20.9
2022-11-04T21:19:03.547Z,20.7
2022-11-04T21:21:21.374Z,20.6
2022-11-04T21:23:39.052Z,21.2
2022-11-04T21:25:56.801Z,20.9
2022-11-04T21:28:14.402Z,21.2
2022-11-04T21:30:33.286Z,20.6
2022-11-04T21:32:49.859Z,20.9
2022-11-04T21:35:07.420Z,20.7
2022-11-04T21:37:25.053Z,20.4
2022-11-04T21:39:42.854Z,20.4
2022-11-04T21:42:00.513Z,20.9
2022-11-04T21:44:18.264Z,21.3
2022-11-04T21:46:36.038Z,20.6
2022-11-04T21:48:53.664Z,20.5
2022-11-04T21:51:11.487Z,20.5
2022-11-04T21:53:28.866Z,20.6
2022-11-04T21:55:46.889Z,20.3
2022-11-04T21:58:04.303Z,20.8
2022-11-04T22:00:22.001Z,20.6
2022-11-04T22:02:39.901Z,20.8
2022-11-04T22:07:15.246Z,20.4
2022-11-04T22:09:32.819Z,21.1
2022-11-04T22:11:50.533Z,20.8
2022-11-04T22:14:08.275Z,20.6
2022-11-04T22:16:25.954Z,20.1
2022-11-04T22:18:43.660Z,20.9
2022-11-04T22:21:01.391Z,21.1
2022-11-04T22:23:19.110Z,21.5
2022-11-04T22:25:36.875Z,21.5
2022-11-04T22:27:54.510Z,20.6
2022-11-04T22:30:12.193Z,20.8
2022-11-04T22:34:47.661Z,20.6
2022-11-04T22:37:05.623Z,20.8
2022-11-04T22:39:23.146Z,20.3
2022-11-04T22:41:40.768Z,20.7
2022-11-04T22:43:58.531Z,20.6
2022-11-04T22:46:16.126Z,21
2022-11-04T22:48:33.887Z,20.7
2022-11-04T22:50:51.792Z,21.1
2022-11-04T22:53:09.627Z,20.8
2022-11-04T22:55:27.166Z,20.9
2022-11-04T22:57:44.793Z,21
2022-11-04T23:00:03.060Z,20.4
2022-11-04T23:02:20.441Z,20.8
2022-11-04T23:04:37.957Z,21
2022-11-04T23:06:55.802Z,20.9
2022-11-04T23:09:13.401Z,20.6
2022-11-04T23:11:30.997Z,20.8
2022-11-04T23:13:48.620Z,20.1
2022-11-04T23:16:06.378Z,20.1
2022-11-04T23:18:23.907Z,19.9
2022-11-04T23:20:41.663Z,20.4
2022-11-04T23:22:59.620Z,20.6
2022-11-04T23:25:17.071Z,20.2
2022-11-04T23:27:34.749Z,20.4
2022-11-04T23:29:52.445Z,20.6
2022-11-04T23:32:10.110Z,20.8
2022-11-04T23:34:28.310Z,20.9
2022-11-04T23:36:45.589Z,20.3
2022-11-04T23:39:03.281Z,21
2022-11-04T23:41:21.008Z,20.6
2022-11-04T23:43:38.743Z,20.7
2022-11-04T23:45:56.351Z,20.8
2022-11-04T23:48:14.119Z,20.6
2022-11-04T23:50:31.778Z,21.1
2022-11-04T23:52:49.362Z,20
2022-11-04T23:55:07.010Z,20
2022-11-04T23:57:24.685Z,20.1
2022-11-04T23:59:42.381Z,20.7
